Arklow Mill — EIJD9 — position and weather

sailwx.info

Track history (hours):
 
Tides and Currents Weather Stations Pressure Air Temp Water Temp Dewpoint Dewpoint Depression Visibility Wind Speed Wind Dir Waves Ship Positions

Arklow Mill

Last reported at 2015-Jul-26 14:33 UTC. Time now 2015-Jul-28 10:22 UTC.
Position N 51°02' E 002°10'.

Length 137 m; draft 8.4 m.

Type: Ship. MMSI: 250002022.

Date/timePositionNaut miles runAvg speedWind from/ knotsBaromVisibWave heightAir tempDewpointWater temp
2015-Jul-26 14:33N 51°02' E 002°10'1111.1
2015-Jul-26 13:33N 51°02' E 001°53'10 8.9
2015-Jul-26 12:23N 50°59' E 001°37'4511.0
2015-Jul-26 08:19N 50°29' E 000°44'14511.9
2015-Jul-25 20:08N 50°11' W 003°01'610.7
2015-Jul-25 19:33N 50°09' W 003°11'23310.1
2015-Jul-24 20:33N 51°04' W 009°08'1211.6
2015-Jul-24 19:33N 51°08' W 009°25'1211.8
2015-Jul-24 18:33N 51°13' W 009°42'1111.3
2015-Jul-24 17:33N 51°20' W 009°57'1111.3
2015-Jul-24 16:33N 51°27' W 010°10'  
2015-Jul-19 10:14N 51°51' W 010°40'2112.4
2015-Jul-19 08:31N 51°33' W 010°21'1212.6
2015-Jul-19 07:33N 51°26' W 010°06'1312.5
2015-Jul-19 06:33N 51°18' W 009°50'1312.9
2015-Jul-19 05:34N 51°13' W 009°31'1212.4
2015-Jul-19 04:34N 51°09' W 009°13'22011.6
2015-Jul-18 09:33N 50°06' W 003°40'1111.2
2015-Jul-18 08:34N 50°08' W 003°23'1111.3
2015-Jul-18 07:33N 50°10' W 003°06'1111.5
2015-Jul-18 06:33N 50°12' W 002°48'5814.3
2015-Jul-18 02:32N 50°22' W 001°19'1515.1
2015-Jul-18 01:32N 50°25' W 000°56'1312.9
2015-Jul-18 00:30N 50°28' W 000°36'1111.6
2015-Jul-17 23:33N 50°30' W 000°19'1310.5
2015-Jul-17 22:17N 50°32' E 000°02'7 9.6
2015-Jul-17 21:33N 50°34' E 000°13'10 9.8
2015-Jul-17 20:33N 50°37' E 000°27'1111.2
2015-Jul-17 19:33N 50°42' E 000°43'1312.8
2015-Jul-17 18:32N 50°50' E 000°60'1313.0
2015-Jul-17 17:33N 50°58' E 001°16'1212.2
2015-Jul-17 16:33N 51°05' E 001°32'1010.2
2015-Jul-17 15:33N 51°04' E 001°48'0 0.3
2015-Jul-17 14:33N 51°04' E 001°48'0 0.0
2015-Jul-17 13:32N 51°04' E 001°48'0 0.0
2015-Jul-17 12:32N 51°04' E 001°48'0 0.0
2015-Jul-17 11:32N 51°04' E 001°48'0 0.0
2015-Jul-17 10:32N 51°04' E 001°48'0 0.2
2015-Jul-17 09:32N 51°04' E 001°48'0 0.1
2015-Jul-17 08:32N 51°04' E 001°48'0 0.0
2015-Jul-17 07:32N 51°04' E 001°48'0 0.1
2015-Jul-17 06:32N 51°04' E 001°48'0 0.2
2015-Jul-17 05:33N 51°04' E 001°48'0 0.0
2015-Jul-17 04:32N 51°04' E 001°48'0 0.0
2015-Jul-17 03:32N 51°04' E 001°48'0 0.0
2015-Jul-17 02:32N 51°04' E 001°48'0 0.0
2015-Jul-17 01:32N 51°04' E 001°48'0 0.0
2015-Jul-17 00:32N 51°04' E 001°48'0 0.0
2015-Jul-16 23:32N 51°04' E 001°48'0 0.2
2015-Jul-16 22:29N 51°04' E 001°48'0 0.1
2015-Jul-16 21:32N 51°04' E 001°48'0 0.0
2015-Jul-16 20:33N 51°04' E 001°48'0 0.0
2015-Jul-16 19:32N 51°04' E 001°48'0 0.0
2015-Jul-16 18:29N 51°04' E 001°48'0 0.0
2015-Jul-16 17:32N 51°04' E 001°48'0 0.1
2015-Jul-16 16:32N 51°04' E 001°48'0 0.0
2015-Jul-16 15:32N 51°04' E 001°48'  
Track history (hours):
 
Tides and Currents Weather Stations Pressure Air Temp Water Temp Dewpoint Dewpoint Depression Visibility Wind Speed Wind Dir Waves Ship Positions

Arklow Mill

Last reported at 2015-Jul-26 14:33 UTC. Time now 2015-Jul-28 10:22 UTC.
Position N 51°02' E 002°10'.

Length 137 m; draft 8.4 m.

Type: Ship. MMSI: 250002022.

Date/timePositionNaut miles runAvg speedWind from/ knotsBaromVisibWave heightAir tempDewpointWater temp
2015-Jul-26 14:33N 51°02' E 002°10'1111.1
2015-Jul-26 13:33N 51°02' E 001°53'10 8.9
2015-Jul-26 12:23N 50°59' E 001°37'4511.0
2015-Jul-26 08:19N 50°29' E 000°44'14511.9
2015-Jul-25 20:08N 50°11' W 003°01'610.7
2015-Jul-25 19:33N 50°09' W 003°11'23310.1
2015-Jul-24 20:33N 51°04' W 009°08'1211.6
2015-Jul-24 19:33N 51°08' W 009°25'1211.8
2015-Jul-24 18:33N 51°13' W 009°42'1111.3
2015-Jul-24 17:33N 51°20' W 009°57'1111.3
2015-Jul-24 16:33N 51°27' W 010°10'  
2015-Jul-19 10:14N 51°51' W 010°40'2112.4
2015-Jul-19 08:31N 51°33' W 010°21'1212.6
2015-Jul-19 07:33N 51°26' W 010°06'1312.5
2015-Jul-19 06:33N 51°18' W 009°50'1312.9
2015-Jul-19 05:34N 51°13' W 009°31'1212.4
2015-Jul-19 04:34N 51°09' W 009°13'22011.6
2015-Jul-18 09:33N 50°06' W 003°40'1111.2
2015-Jul-18 08:34N 50°08' W 003°23'1111.3
2015-Jul-18 07:33N 50°10' W 003°06'1111.5
2015-Jul-18 06:33N 50°12' W 002°48'5814.3
2015-Jul-18 02:32N 50°22' W 001°19'1515.1
2015-Jul-18 01:32N 50°25' W 000°56'1312.9
2015-Jul-18 00:30N 50°28' W 000°36'1111.6
2015-Jul-17 23:33N 50°30' W 000°19'1310.5
2015-Jul-17 22:17N 50°32' E 000°02'7 9.6
2015-Jul-17 21:33N 50°34' E 000°13'10 9.8
2015-Jul-17 20:33N 50°37' E 000°27'1111.2
2015-Jul-17 19:33N 50°42' E 000°43'1312.8
2015-Jul-17 18:32N 50°50' E 000°60'1313.0
2015-Jul-17 17:33N 50°58' E 001°16'1212.2
2015-Jul-17 16:33N 51°05' E 001°32'1010.2
2015-Jul-17 15:33N 51°04' E 001°48'0 0.3
2015-Jul-17 14:33N 51°04' E 001°48'0 0.0
2015-Jul-17 13:32N 51°04' E 001°48'0 0.0
2015-Jul-17 12:32N 51°04' E 001°48'0 0.0
2015-Jul-17 11:32N 51°04' E 001°48'0 0.0
2015-Jul-17 10:32N 51°04' E 001°48'0 0.2
2015-Jul-17 09:32N 51°04' E 001°48'0 0.1
2015-Jul-17 08:32N 51°04' E 001°48'0 0.0
2015-Jul-17 07:32N 51°04' E 001°48'0 0.1
2015-Jul-17 06:32N 51°04' E 001°48'0 0.2
2015-Jul-17 05:33N 51°04' E 001°48'0 0.0
2015-Jul-17 04:32N 51°04' E 001°48'0 0.0
2015-Jul-17 03:32N 51°04' E 001°48'0 0.0
2015-Jul-17 02:32N 51°04' E 001°48'0 0.0
2015-Jul-17 01:32N 51°04' E 001°48'0 0.0
2015-Jul-17 00:32N 51°04' E 001°48'0 0.0
2015-Jul-16 23:32N 51°04' E 001°48'0 0.2
2015-Jul-16 22:29N 51°04' E 001°48'0 0.1
2015-Jul-16 21:32N 51°04' E 001°48'0 0.0
2015-Jul-16 20:33N 51°04' E 001°48'0 0.0
2015-Jul-16 19:32N 51°04' E 001°48'0 0.0
2015-Jul-16 18:29N 51°04' E 001°48'0 0.0
2015-Jul-16 17:32N 51°04' E 001°48'0 0.1
2015-Jul-16 16:32N 51°04' E 001°48'0 0.0
2015-Jul-16 15:32N 51°04' E 001°48'  

Dump ship's entire track history